createdAt,value
2023-03-06T00:00:39.251Z,94.69
2023-03-06T00:01:39.258Z,94.90
2023-03-06T00:02:39.239Z,95.42
2023-03-06T00:03:39.267Z,95.46
2023-03-06T00:04:39.247Z,95.31
2023-03-06T00:05:39.256Z,95.10
2023-03-06T00:06:39.229Z,94.90
2023-03-06T00:07:39.216Z,94.90
2023-03-06T00:08:39.206Z,94.79
2023-03-06T00:09:39.198Z,94.17
2023-03-06T00:10:39.194Z,94.58
2023-03-06T00:11:39.206Z,94.27
2023-03-06T00:12:39.176Z,93.85
2023-03-06T00:13:39.172Z,93.75
2023-03-06T00:14:39.169Z,93.54
2023-03-06T00:15:39.167Z,93.12
2023-03-06T00:16:39.141Z,93.08
2023-03-06T00:17:39.150Z,93.12
2023-03-06T00:18:39.131Z,93.08
2023-03-06T00:19:39.142Z,92.71
2023-03-06T00:20:39.138Z,92.56
2023-03-06T00:21:39.105Z,92.66
2023-03-06T00:22:39.104Z,92.81
2023-03-06T00:23:39.101Z,92.66
2023-03-06T00:24:39.092Z,92.56
2023-03-06T00:25:39.120Z,92.46
2023-03-06T00:26:39.105Z,92.56
2023-03-06T00:27:39.077Z,92.66
2023-03-06T00:28:39.073Z,92.66
2023-03-06T00:29:39.056Z,93.18
2023-03-06T00:30:39.054Z,92.97
2023-03-06T00:31:39.110Z,93.08
2023-03-06T00:32:39.046Z,92.97
2023-03-06T00:33:39.034Z,93.50
2023-03-06T00:34:39.031Z,92.66
2023-03-06T00:35:39.041Z,92.91
2023-03-06T00:36:39.026Z,93.18
2023-03-06T00:37:39.034Z,92.56
2023-03-06T00:38:39.004Z,92.77
2023-03-06T00:39:38.997Z,92.25
2023-03-06T00:40:39.005Z,92.08
2023-03-06T00:41:38.981Z,92.46
2023-03-06T00:42:38.992Z,92.40
2023-03-06T00:43:38.964Z,92.50
2023-03-06T00:44:38.959Z,92.71
2023-03-06T00:45:39.025Z,92.87
2023-03-06T00:46:38.947Z,92.71
2023-03-06T00:47:38.965Z,92.50
2023-03-06T00:48:38.932Z,92.40
2023-03-06T00:49:38.931Z,92.29
2023-03-06T00:50:39.920Z,92.40
2023-03-06T00:51:38.912Z,92.40
2023-03-06T00:52:38.915Z,92.81
2023-03-06T00:53:38.902Z,92.60
2023-03-06T00:54:38.896Z,92.91
2023-03-06T00:55:38.887Z,92.81
2023-03-06T00:56:38.896Z,92.40
2023-03-06T00:57:38.882Z,92.71
2023-03-06T00:58:38.889Z,92.25
2023-03-06T00:59:38.871Z,92.40
2023-03-06T01:00:38.886Z,92.18
2023-03-06T01:01:38.847Z,92.18
2023-03-06T01:02:38.854Z,92.40
2023-03-06T01:03:38.840Z,92.44
2023-03-06T01:04:38.853Z,92.29
2023-03-06T01:05:39.830Z,92.50
2023-03-06T01:06:38.814Z,92.71
2023-03-06T01:07:38.807Z,92.29
2023-03-06T01:08:38.799Z,93.12
2023-03-06T01:09:38.812Z,92.50
2023-03-06T01:10:38.789Z,92.60
2023-03-06T01:11:38.788Z,92.81
2023-03-06T01:12:38.792Z,92.75
2023-03-06T01:13:38.768Z,93.44
2023-03-06T01:14:38.784Z,93.44
2023-03-06T01:15:38.755Z,93.44
2023-03-06T01:16:38.768Z,93.75
2023-03-06T01:17:38.731Z,93.54
2023-03-06T01:18:38.730Z,93.23
2023-03-06T01:19:38.738Z,93.75
2023-03-06T01:20:38.732Z,92.91
2023-03-06T01:21:38.718Z,93.12
2023-03-06T01:22:38.712Z,92.77
2023-03-06T01:23:38.723Z,92.81
2023-03-06T01:24:38.715Z,92.81
2023-03-06T01:25:38.686Z,92.71
2023-03-06T01:26:38.677Z,92.60
2023-03-06T01:27:38.698Z,93.85
2023-03-06T01:28:38.661Z,94.37
2023-03-06T01:29:38.663Z,94.79
2023-03-06T01:30:38.662Z,94.94
2023-03-06T01:31:38.693Z,95.15
2023-03-06T01:32:38.713Z,96.09
2023-03-06T01:33:38.636Z,96.46
2023-03-06T01:34:38.625Z,96.40
2023-03-06T01:35:38.660Z,95.83
2023-03-06T01:36:38.610Z,96.25
2023-03-06T01:37:38.603Z,96.67
2023-03-06T01:38:38.598Z,96.67
2023-03-06T01:39:38.588Z,96.71
2023-03-06T01:40:38.608Z,96.56
2023-03-06T01:41:38.580Z,96.50
2023-03-06T01:42:38.577Z,96.71
2023-03-06T01:43:38.570Z,96.92
2023-03-06T01:44:38.558Z,97.13
2023-03-06T01:45:38.580Z,97.03
2023-03-06T01:46:38.555Z,98.38
2023-03-06T01:47:39.569Z,97.75
2023-03-06T01:48:38.539Z,97.75
2023-03-06T01:49:38.538Z,97.34
2023-03-06T01:50:38.539Z,97.75
2023-03-06T01:51:38.559Z,97.55
2023-03-06T01:52:38.520Z,97.30
2023-03-06T01:53:38.511Z,97.34
2023-03-06T01:54:38.513Z,97.34
2023-03-06T01:55:38.503Z,97.34
2023-03-06T01:56:38.495Z,97.13
2023-03-06T01:57:38.487Z,97.55
2023-03-06T01:58:38.491Z,97.55
2023-03-06T01:59:38.476Z,97.65
2023-03-06T02:00:38.464Z,97.30
2023-03-06T02:01:38.452Z,97.34
2023-03-06T02:02:38.477Z,97.34
2023-03-06T02:03:38.459Z,97.44
2023-03-06T02:04:38.434Z,97.50
2023-03-06T02:05:38.428Z,97.40
2023-03-06T02:06:38.434Z,97.34
2023-03-06T02:07:38.452Z,97.61
2023-03-06T02:08:38.413Z,97.55
2023-03-06T02:09:38.408Z,97.50
2023-03-06T02:10:38.396Z,97.30
2023-03-06T02:11:38.481Z,97.61
2023-03-06T02:12:38.381Z,97.71
2023-03-06T02:13:38.394Z,98.13
2023-03-06T02:14:38.364Z,96.83
2023-03-06T02:15:38.361Z,96.42
2023-03-06T02:16:38.432Z,96.52
2023-03-06T02:17:38.345Z,96.52
2023-03-06T02:18:38.350Z,96.73
2023-03-06T02:19:38.350Z,96.42
2023-03-06T02:20:38.339Z,96.26
2023-03-06T02:21:38.346Z,96.06
2023-03-06T02:22:38.306Z,95.95
2023-03-06T02:23:38.301Z,95.37
2023-03-06T02:24:38.311Z,95.54
2023-03-06T02:25:38.309Z,95.23
2023-03-06T02:26:38.289Z,94.92
2023-03-06T02:27:38.293Z,94.60
2023-03-06T02:28:38.279Z,94.49
2023-03-06T02:29:38.275Z,94.18
2023-03-06T02:30:38.325Z,94.60
2023-03-06T02:31:38.244Z,94.18
2023-03-06T02:32:38.314Z,94.08
2023-03-06T02:33:38.250Z,94.60
2023-03-06T02:34:38.251Z,94.60
2023-03-06T02:35:38.297Z,94.18
2023-03-06T02:36:38.230Z,94.39
2023-03-06T02:37:38.241Z,94.08
2023-03-06T02:38:38.202Z,94.29
2023-03-06T02:39:38.216Z,94.39
2023-03-06T02:40:38.210Z,93.87
2023-03-06T02:41:38.192Z,94.49
2023-03-06T02:42:38.200Z,94.60
2023-03-06T02:43:38.189Z,94.08
2023-03-06T02:44:38.192Z,94.70
2023-03-06T02:45:38.169Z,94.92
2023-03-06T02:46:38.156Z,95.06
2023-03-06T02:47:38.184Z,94.96
2023-03-06T02:48:38.159Z,95.06
2023-03-06T02:49:38.141Z,95.33
2023-03-06T02:50:38.123Z,95.23
2023-03-06T02:51:38.127Z,94.92
2023-03-06T02:52:38.141Z,95.23
2023-03-06T02:53:38.113Z,95.02
2023-03-06T02:54:38.105Z,95.12
2023-03-06T02:55:38.101Z,95.23
2023-03-06T02:56:38.108Z,94.81
2023-03-06T02:57:38.098Z,94.81
2023-03-06T02:58:38.094Z,94.92
2023-03-06T02:59:38.071Z,94.70
2023-03-06T03:00:39.452Z,95.12
2023-03-06T03:01:38.127Z,95.12
2023-03-06T03:02:38.059Z,95.23
2023-03-06T03:03:38.056Z,94.81
2023-03-06T03:04:38.079Z,94.81
2023-03-06T03:05:38.030Z,95.33
2023-03-06T03:06:38.025Z,95.27
2023-03-06T03:07:38.015Z,95.37
2023-03-06T03:08:38.040Z,95.79
2023-03-06T03:09:38.006Z,95.68
2023-03-06T03:10:38.000Z,95.58
2023-03-06T03:11:37.994Z,96.00
2023-03-06T03:12:37.986Z,96.00
2023-03-06T03:13:38.003Z,95.89
2023-03-06T03:14:37.970Z,96.11
2023-03-06T03:15:38.041Z,96.11
2023-03-06T03:16:39.195Z,95.68
2023-03-06T03:17:38.933Z,96.31
2023-03-06T03:18:37.969Z,96.21
2023-03-06T03:19:37.935Z,96.73
2023-03-06T03:20:37.932Z,96.42
2023-03-06T03:21:37.918Z,96.83
2023-03-06T03:22:37.922Z,96.98
2023-03-06T03:23:37.920Z,97.92
2023-03-06T03:24:37.989Z,98.13
2023-03-06T03:25:37.898Z,98.02
2023-03-06T03:26:37.894Z,97.81
2023-03-06T03:27:37.895Z,97.61
2023-03-06T03:28:37.886Z,97.81
2023-03-06T03:29:37.884Z,97.30
2023-03-06T03:30:37.858Z,97.56
2023-03-06T03:31:37.853Z,97.61
2023-03-06T03:32:37.897Z,97.40
2023-03-06T03:33:37.859Z,97.61
2023-03-06T03:34:37.858Z,97.67
2023-03-06T03:35:37.856Z,97.30
2023-03-06T03:36:37.830Z,97.19
2023-03-06T03:37:37.832Z,97.50
2023-03-06T03:38:37.816Z,97.50
2023-03-06T03:39:37.822Z,97.56
2023-03-06T03:40:37.814Z,97.35
2023-03-06T03:41:37.796Z,97.25
2023-03-06T03:42:37.798Z,97.35
2023-03-06T03:43:37.775Z,97.35
2023-03-06T03:44:37.773Z,97.72
2023-03-06T03:45:37.774Z,97.83
2023-03-06T03:46:37.753Z,97.41
2023-03-06T03:47:37.745Z,96.89
2023-03-06T03:48:37.776Z,96.48
2023-03-06T03:49:37.753Z,96.26
2023-03-06T03:50:37.734Z,96.06
2023-03-06T03:51:37.723Z,95.54
2023-03-06T03:52:37.711Z,95.54
2023-03-06T03:53:37.717Z,95.64
2023-03-06T03:54:37.713Z,95.43
2023-03-06T03:55:37.698Z,95.23
2023-03-06T03:56:37.690Z,95.08
2023-03-06T03:57:37.675Z,95.02
2023-03-06T03:58:37.670Z,95.18
2023-03-06T03:59:37.670Z,95.08
2023-03-06T04:00:37.653Z,94.66
2023-03-06T04:01:39.787Z,94.76
2023-03-06T04:02:38.642Z,94.76
2023-03-06T04:03:37.630Z,94.66
2023-03-06T04:04:37.669Z,94.76
2023-03-06T04:05:37.621Z,94.76
2023-03-06T04:06:37.624Z,94.66
2023-03-06T04:07:37.620Z,94.41
2023-03-06T04:08:37.597Z,94.31
2023-03-06T04:09:37.608Z,94.24
2023-03-06T04:10:37.581Z,94.31
2023-03-06T04:11:37.588Z,93.83
2023-03-06T04:12:37.570Z,94.04
2023-03-06T04:13:37.572Z,94.14
2023-03-06T04:14:37.589Z,94.45
2023-03-06T04:15:37.553Z,95.12
2023-03-06T04:16:37.543Z,94.92
2023-03-06T04:17:37.535Z,95.33
2023-03-06T04:18:37.523Z,95.85
2023-03-06T04:19:37.531Z,96.31
2023-03-06T04:20:37.543Z,96.52
2023-03-06T04:21:37.528Z,96.73
2023-03-06T04:22:37.500Z,97.88
2023-03-06T04:23:37.500Z,97.81
2023-03-06T04:24:37.512Z,97.88
2023-03-06T04:25:37.514Z,98.55
2023-03-06T04:26:37.485Z,99.38
2023-03-06T04:27:37.480Z,98.96
2023-03-06T04:28:37.468Z,98.86
2023-03-06T04:29:37.461Z,98.75
2023-03-06T04:30:37.447Z,99.48
2023-03-06T04:31:38.555Z,99.59
2023-03-06T04:32:37.465Z,99.17
2023-03-06T04:33:37.442Z,99.59
2023-03-06T04:34:37.428Z,99.59
2023-03-06T04:35:37.493Z,99.27
2023-03-06T04:36:37.447Z,99.17
2023-03-06T04:37:37.419Z,98.96
2023-03-06T04:38:37.425Z,99.38
2023-03-06T04:39:37.399Z,99.33
2023-03-06T04:40:37.403Z,99.48
2023-03-06T04:41:37.422Z,99.59
2023-03-06T04:42:37.382Z,99.48
2023-03-06T04:43:37.373Z,99.33
2023-03-06T04:44:37.372Z,99.59
2023-03-06T04:45:37.437Z,98.92
2023-03-06T04:46:37.373Z,99.54
2023-03-06T04:47:37.344Z,99.54
2023-03-06T04:48:37.332Z,98.96
2023-03-06T04:49:37.336Z,99.13
2023-03-06T04:50:37.329Z,99.65
2023-03-06T04:51:37.313Z,99.13
2023-03-06T04:52:37.328Z,98.92
2023-03-06T04:53:37.310Z,99.02
2023-03-06T04:54:37.289Z,99.44
2023-03-06T04:55:37.297Z,99.54
2023-03-06T04:56:37.285Z,99.02
2023-03-06T04:57:37.282Z,99.54
2023-03-06T04:58:37.269Z,98.82
2023-03-06T04:59:39.164Z,98.82
2023-03-06T05:00:38.279Z,98.71
2023-03-06T05:01:37.261Z,99.02
2023-03-06T05:02:37.243Z,99.23
2023-03-06T05:03:37.247Z,99.13
2023-03-06T05:04:37.234Z,98.82
2023-03-06T05:05:37.227Z,99.02
2023-03-06T05:06:37.211Z,98.92
2023-03-06T05:07:37.189Z,98.71
2023-03-06T05:08:37.200Z,98.82
2023-03-06T05:09:38.836Z,98.71
2023-03-06T05:10:38.208Z,99.33
2023-03-06T05:11:37.171Z,99.44
2023-03-06T05:12:37.168Z,99.54
2023-03-06T05:13:37.160Z,99.33
2023-03-06T05:14:37.144Z,98.50
2023-03-06T05:15:37.166Z,99.54
2023-03-06T05:16:37.207Z,99.44
2023-03-06T05:17:37.131Z,99.44
2023-03-06T05:18:37.129Z,98.82
2023-03-06T05:19:37.122Z,98.92
2023-03-06T05:20:37.137Z,99.02
2023-03-06T05:21:37.100Z,99.65
2023-03-06T05:22:37.129Z,99.54
2023-03-06T05:23:37.103Z,99.54
2023-03-06T05:24:37.089Z,99.54
2023-03-06T05:25:37.087Z,99.13
2023-03-06T05:26:37.071Z,99.23
2023-03-06T05:27:37.073Z,99.54
2023-03-06T05:28:37.058Z,99.02
2023-03-06T05:29:37.042Z,99.65
2023-03-06T05:30:37.058Z,99.33
2023-03-06T05:31:37.066Z,99.33
2023-03-06T05:32:37.090Z,99.13
2023-03-06T05:33:37.022Z,99.48
2023-03-06T05:34:37.018Z,99.23
2023-03-06T05:35:37.023Z,99.33
2023-03-06T05:36:37.014Z,99.13
2023-03-06T05:37:37.007Z,99.13
2023-03-06T05:38:36.996Z,99.33
2023-03-06T05:39:37.011Z,99.13
2023-03-06T05:40:36.990Z,99.33
2023-03-06T05:41:36.971Z,99.54
2023-03-06T05:42:36.970Z,99.33
2023-03-06T05:43:36.949Z,99.99
2023-03-06T05:44:36.947Z,99.99
2023-03-06T05:45:36.972Z,99.85
2023-03-06T05:46:36.938Z,99.13
2023-03-06T05:47:36.932Z,99.80
2023-03-06T05:48:36.921Z,99.99
2023-03-06T05:49:36.910Z,99.90
2023-03-06T05:50:36.911Z,99.69
2023-03-06T05:51:36.910Z,99.99
2023-03-06T05:52:36.897Z,99.96
2023-03-06T05:53:36.907Z,99.99
2023-03-06T05:54:36.907Z,99.99
2023-03-06T05:55:36.871Z,99.90
2023-03-06T05:56:36.873Z,99.96
2023-03-06T05:57:36.889Z,99.99
2023-03-06T05:58:36.846Z,99.99
2023-03-06T05:59:36.883Z,99.69
2023-03-06T06:00:36.833Z,99.99
2023-03-06T06:01:36.836Z,99.99
2023-03-06T06:02:36.831Z,99.99
2023-03-06T06:03:36.857Z,99.99
2023-03-06T06:04:36.804Z,99.99
2023-03-06T06:05:36.846Z,99.99
2023-03-06T06:06:36.792Z,99.99
2023-03-06T06:07:36.781Z,99.99
2023-03-06T06:08:36.783Z,99.99
2023-03-06T06:09:36.791Z,99.99
2023-03-06T06:10:36.760Z,99.99
2023-03-06T06:11:36.761Z,99.99
2023-03-06T06:12:36.751Z,99.99
2023-03-06T06:13:36.743Z,99.99
2023-03-06T06:14:36.747Z,99.99
2023-03-06T06:15:36.761Z,99.99
2023-03-06T06:16:36.727Z,99.99
2023-03-06T06:17:36.733Z,99.99
2023-03-06T06:18:38.157Z,99.99
2023-03-06T06:19:36.730Z,99.99
2023-03-06T06:20:36.704Z,99.99
2023-03-06T06:21:36.695Z,99.99
2023-03-06T06:22:36.702Z,99.99
2023-03-06T06:23:36.673Z,99.99
2023-03-06T06:24:36.700Z,99.99
2023-03-06T06:25:36.658Z,99.99
2023-03-06T06:26:36.660Z,99.99
2023-03-06T06:27:36.651Z,99.99
2023-03-06T06:28:36.675Z,99.99
2023-03-06T06:29:36.692Z,99.99
2023-03-06T06:30:36.642Z,99.99
2023-03-06T06:31:36.647Z,99.99
2023-03-06T06:32:36.713Z,99.99
2023-03-06T06:33:36.616Z,99.99
2023-03-06T06:34:36.604Z,99.99
2023-03-06T06:35:36.614Z,99.99
2023-03-06T06:36:36.608Z,99.99
2023-03-06T06:37:36.589Z,99.99
2023-03-06T06:38:36.588Z,99.99
2023-03-06T06:39:36.593Z,99.99
2023-03-06T06:40:36.665Z,99.99
2023-03-06T06:41:54.766Z,99.99
2023-03-06T06:42:40.286Z,99.99
2023-03-06T06:43:37.540Z,99.99
2023-03-06T06:44:36.548Z,99.99
2023-03-06T06:45:36.543Z,99.99
2023-03-06T06:47:38.629Z,99.99
2023-03-06T06:48:36.524Z,99.99
2023-03-06T06:49:36.513Z,99.99
2023-03-06T06:50:36.495Z,99.99
2023-03-06T06:51:36.500Z,99.99
2023-03-06T06:52:36.515Z,99.99
2023-03-06T06:53:36.482Z,99.99
2023-03-06T06:54:36.481Z,99.99
2023-03-06T06:55:36.475Z,99.99
2023-03-06T06:56:36.465Z,99.99
2023-03-06T06:57:36.489Z,99.99
2023-03-06T06:58:36.451Z,99.99
2023-03-06T06:59:36.452Z,99.99
2023-03-06T07:00:36.436Z,99.99
2023-03-06T07:01:36.479Z,99.99
2023-03-06T07:02:36.428Z,99.99
2023-03-06T07:03:36.475Z,99.99
2023-03-06T07:04:36.415Z,99.99
2023-03-06T07:05:36.404Z,99.99
2023-03-06T07:06:36.400Z,99.99
2023-03-06T07:07:36.558Z,99.99
2023-03-06T07:08:36.380Z,99.99
2023-03-06T07:09:36.411Z,99.99
2023-03-06T07:10:36.379Z,99.99
2023-03-06T07:11:36.368Z,99.99
2023-03-06T07:12:36.357Z,99.99
2023-03-06T07:13:36.349Z,99.99
2023-03-06T07:14:36.383Z,99.99
2023-03-06T07:15:36.360Z,99.99
2023-03-06T07:16:36.350Z,99.76
2023-03-06T07:17:36.330Z,99.04
2023-03-06T07:18:36.320Z,99.24
2023-03-06T07:19:37.393Z,99.55
2023-03-06T07:20:36.323Z,98.68
2023-03-06T07:21:36.296Z,98.62
2023-03-06T07:22:49.960Z,98.78
2023-03-06T07:23:38.296Z,98.88
2023-03-06T07:24:36.280Z,98.36
2023-03-06T07:25:36.298Z,98.36
2023-03-06T07:26:36.281Z,97.85
2023-03-06T07:27:36.297Z,98.05
2023-03-06T07:28:50.005Z,97.74
2023-03-06T07:29:38.241Z,97.85
2023-03-06T07:30:36.243Z,97.85
2023-03-06T07:31:36.275Z,97.85
2023-03-06T07:32:36.257Z,97.64
2023-03-06T07:33:36.245Z,98.05
2023-03-06T07:34:36.234Z,97.89
2023-03-06T07:35:36.237Z,97.68
2023-03-06T07:36:36.230Z,97.68
2023-03-06T07:37:36.193Z,98.10
2023-03-06T07:38:36.193Z,97.78
2023-03-06T07:39:36.190Z,97.68
2023-03-06T07:40:36.191Z,97.68
2023-03-06T07:41:36.167Z,97.78
2023-03-06T07:42:36.174Z,97.89
2023-03-06T07:43:36.154Z,97.89
2023-03-06T07:44:36.157Z,97.47
2023-03-06T07:45:36.151Z,97.89
2023-03-06T07:46:36.160Z,97.68
2023-03-06T07:47:36.126Z,97.68
2023-03-06T07:48:36.118Z,97.68
2023-03-06T07:49:36.359Z,97.16
2023-03-06T07:50:36.106Z,97.58
2023-03-06T07:51:36.098Z,97.58
2023-03-06T07:52:36.107Z,97.62
2023-03-06T07:53:36.099Z,97.68
2023-03-06T07:54:36.097Z,97.68
2023-03-06T07:55:36.079Z,97.58
2023-03-06T07:56:36.077Z,97.58
2023-03-06T07:57:36.067Z,97.89
2023-03-06T07:58:36.066Z,98.05
2023-03-06T07:59:36.050Z,97.68
2023-03-06T08:00:36.058Z,97.33
2023-03-06T08:01:36.050Z,98.05
2023-03-06T08:02:36.074Z,98.53
2023-03-06T08:03:36.050Z,97.91
2023-03-06T08:04:36.029Z,97.49
2023-03-06T08:05:36.015Z,97.38
2023-03-06T08:06:36.011Z,96.86
2023-03-06T08:07:36.015Z,96.76
2023-03-06T08:08:35.992Z,96.66
2023-03-06T08:09:36.008Z,96.09
2023-03-06T08:10:35.979Z,96.51
2023-03-06T08:11:35.958Z,96.25
2023-03-06T08:12:35.965Z,96.57
2023-03-06T08:13:35.949Z,96.00
2023-03-06T08:14:35.943Z,95.79
2023-03-06T08:15:35.937Z,95.17
2023-03-06T08:16:36.010Z,94.45
2023-03-06T08:17:35.939Z,94.09
2023-03-06T08:18:35.912Z,93.78
2023-03-06T08:19:35.908Z,93.37
2023-03-06T08:20:35.909Z,92.74
2023-03-06T08:21:35.898Z,92.63
2023-03-06T08:22:35.901Z,92.49
2023-03-06T08:23:35.907Z,92.18
2023-03-06T08:24:35.875Z,92.38
2023-03-06T08:25:35.862Z,91.83
2023-03-06T08:26:35.870Z,91.62
2023-03-06T08:27:35.900Z,90.69
2023-03-06T08:28:35.854Z,90.75
2023-03-06T08:29:35.849Z,89.96
2023-03-06T08:30:35.962Z,89.65
2023-03-06T08:31:35.883Z,88.88
2023-03-06T08:32:35.850Z,88.67
2023-03-06T08:33:35.805Z,88.05
2023-03-06T08:34:35.805Z,87.63
2023-03-06T08:35:36.683Z,89.40
2023-03-06T08:36:36.759Z,90.14
2023-03-06T08:37:36.733Z,88.90
2023-03-06T08:38:37.652Z,88.24
2023-03-06T08:39:35.853Z,87.04
2023-03-06T08:40:35.760Z,86.93
2023-03-06T08:41:35.752Z,87.20
2023-03-06T08:42:35.760Z,86.85
2023-03-06T08:43:35.765Z,86.85
2023-03-06T08:44:35.727Z,86.75
2023-03-06T08:45:35.789Z,85.36
2023-03-06T08:46:35.716Z,84.53
2023-03-06T08:47:35.737Z,83.61
2023-03-06T08:48:35.707Z,83.91
2023-03-06T08:49:35.691Z,83.81
2023-03-06T08:50:35.689Z,84.19
2023-03-06T08:51:35.679Z,83.77
2023-03-06T08:52:35.698Z,83.56
2023-03-06T08:53:43.070Z,83.32
2023-03-06T08:54:37.748Z,82.39
2023-03-06T08:55:35.663Z,80.53
2023-03-06T08:56:35.655Z,80.74
2023-03-06T08:57:35.646Z,80.22
2023-03-06T08:58:35.647Z,80.01
2023-03-06T08:59:35.664Z,80.84
2023-03-06T09:00:35.655Z,80.94
2023-03-06T09:01:35.629Z,79.29
2023-03-06T09:02:35.632Z,77.84
2023-03-06T09:03:35.605Z,79.80
2023-03-06T09:04:35.610Z,79.19
2023-03-06T09:05:35.594Z,78.81
2023-03-06T09:06:35.578Z,79.47
2023-03-06T09:07:35.572Z,80.60
2023-03-06T09:08:35.616Z,79.30
2023-03-06T09:09:35.566Z,80.26
2023-03-06T09:10:35.603Z,81.09
2023-03-06T09:11:35.550Z,80.68
2023-03-06T09:12:48.833Z,80.92
2023-03-06T09:13:37.544Z,81.65
2023-03-06T09:14:35.547Z,82.17
2023-03-06T09:15:35.518Z,81.85
2023-03-06T09:16:35.552Z,81.85
2023-03-06T09:17:35.556Z,81.85
2023-03-06T09:18:35.528Z,81.34
2023-03-06T09:19:35.504Z,82.37
2023-03-06T09:20:35.521Z,81.13
2023-03-06T09:21:35.496Z,81.13
2023-03-06T09:22:35.485Z,81.85
2023-03-06T09:23:35.471Z,82.17
2023-03-06T09:24:35.487Z,81.30
2023-03-06T09:25:35.471Z,79.37
2023-03-06T09:26:45.660Z,79.68
2023-03-06T09:27:37.477Z,79.27
2023-03-06T09:28:35.461Z,79.27
2023-03-06T09:29:35.449Z,79.78
2023-03-06T09:30:35.480Z,79.23
2023-03-06T09:31:35.423Z,79.44
2023-03-06T09:32:35.484Z,79.40
2023-03-06T09:33:35.423Z,80.50
2023-03-06T09:34:35.417Z,79.84
2023-03-06T09:35:35.455Z,78.81
2023-03-06T09:36:49.246Z,78.46
2023-03-06T09:37:37.392Z,78.53
2023-03-06T09:38:35.410Z,78.42
2023-03-06T09:39:35.372Z,77.77
2023-03-06T09:40:35.368Z,76.53
2023-03-06T09:41:35.364Z,76.84
2023-03-06T09:42:36.195Z,76.60
2023-03-06T09:43:36.348Z,74.40
2023-03-06T09:44:35.370Z,75.87
2023-03-06T09:45:35.324Z,77.18
2023-03-06T09:46:35.321Z,77.17
2023-03-06T09:47:35.317Z,74.80
2023-03-06T09:48:35.310Z,70.53
2023-03-06T09:49:35.347Z,70.12
2023-03-06T09:50:35.280Z,69.40
2023-03-06T09:51:36.290Z,65.14
2023-03-06T09:52:35.290Z,66.88
2023-03-06T09:53:35.270Z,63.15
2023-03-06T09:54:35.270Z,65.84
2023-03-06T09:55:35.291Z,67.69
2023-03-06T09:56:35.305Z,64.31
2023-03-06T09:57:35.277Z,61.85
2023-03-06T09:58:35.242Z,66.71
2023-03-06T09:59:35.233Z,64.50
2023-03-06T10:00:35.251Z,63.57
2023-03-06T10:01:35.232Z,62.80
2023-03-06T10:02:35.298Z,63.18
2023-03-06T10:03:35.217Z,59.12
2023-03-06T10:04:35.282Z,58.50
2023-03-06T10:05:35.214Z,57.53
2023-03-06T10:06:35.183Z,56.46
2023-03-06T10:07:36.189Z,58.18
2023-03-06T10:08:35.175Z,62.21
2023-03-06T10:09:35.173Z,60.26
2023-03-06T10:10:35.170Z,61.52
2023-03-06T10:11:35.180Z,61.60
2023-03-06T10:12:35.147Z,62.73
2023-03-06T10:13:35.140Z,60.88
2023-03-06T10:14:35.135Z,61.08
2023-03-06T10:15:35.148Z,60.29
2023-03-06T10:16:35.159Z,61.42
2023-03-06T10:17:35.382Z,60.39
2023-03-06T10:18:35.137Z,60.21
2023-03-06T10:19:35.113Z,59.63
2023-03-06T10:20:35.111Z,61.40
2023-03-06T10:21:35.105Z,62.46
2023-03-06T10:22:35.104Z,62.46
2023-03-06T10:23:35.069Z,61.74
2023-03-06T10:24:35.166Z,60.50
2023-03-06T10:25:35.077Z,62.70
2023-03-06T10:26:35.143Z,61.05
2023-03-06T10:27:35.088Z,62.52
2023-03-06T10:28:35.570Z,62.31
2023-03-06T10:29:36.059Z,63.10
2023-03-06T10:30:35.043Z,62.41
2023-03-06T10:31:35.041Z,62.21
2023-03-06T10:32:47.512Z,60.79
2023-03-06T10:33:37.014Z,62.19
2023-03-06T10:34:35.019Z,63.64
2023-03-06T10:35:35.015Z,64.46
2023-03-06T10:36:34.991Z,64.53
2023-03-06T10:37:36.020Z,64.98
2023-03-06T10:38:34.997Z,65.70
2023-03-06T10:39:34.972Z,65.62
2023-03-06T10:40:34.972Z,65.52
2023-03-06T10:41:34.985Z,63.56
2023-03-06T10:42:34.973Z,64.90
2023-03-06T10:43:36.403Z,64.70
2023-03-06T10:44:35.956Z,63.49
2023-03-06T10:45:48.525Z,64.11
2023-03-06T10:46:37.016Z,65.11
2023-03-06T10:47:34.927Z,64.39
2023-03-06T10:48:34.957Z,64.59
2023-03-06T10:49:35.643Z,63.35
2023-03-06T10:50:34.995Z,62.63
2023-03-06T10:51:34.907Z,63.67
2023-03-06T10:52:34.904Z,63.77
2023-03-06T10:53:34.917Z,64.90
2023-03-06T10:54:34.897Z,64.31
2023-03-06T10:55:34.874Z,65.45
2023-03-06T10:56:34.879Z,65.55
2023-03-06T10:57:34.859Z,65.73
2023-03-06T10:58:34.888Z,66.48
2023-03-06T10:59:34.854Z,65.97
2023-03-06T11:00:34.871Z,65.14
2023-03-06T11:01:34.854Z,65.69
2023-03-06T11:02:34.854Z,66.00
2023-03-06T11:03:34.977Z,66.54
2023-03-06T11:04:34.926Z,66.23
2023-03-06T11:05:34.826Z,66.00
2023-03-06T11:06:34.814Z,66.54
2023-03-06T11:07:34.810Z,67.06
2023-03-06T11:08:34.818Z,66.96
2023-03-06T11:09:34.814Z,66.82
2023-03-06T11:10:34.793Z,66.00
2023-03-06T11:11:37.721Z,66.30
2023-03-06T11:12:35.768Z,66.20
2023-03-06T11:13:34.771Z,66.38
2023-03-06T11:14:34.778Z,66.10
2023-03-06T11:15:34.759Z,66.17
2023-03-06T11:16:34.817Z,64.34
2023-03-06T11:17:34.736Z,64.96
2023-03-06T11:18:34.719Z,65.27
2023-03-06T11:19:34.730Z,63.62
2023-03-06T11:20:48.881Z,64.76
2023-03-06T11:21:36.721Z,65.24
2023-03-06T11:22:34.691Z,64.93
2023-03-06T11:23:34.721Z,64.62
2023-03-06T11:24:34.697Z,64.21
2023-03-06T11:25:34.672Z,64.00
2023-03-06T11:26:34.668Z,64.42
2023-03-06T11:27:34.781Z,65.11
2023-03-06T11:28:34.656Z,63.87
2023-03-06T11:29:36.811Z,64.73
2023-03-06T11:30:35.627Z,63.59
2023-03-06T11:31:34.681Z,64.31
2023-03-06T11:32:34.632Z,63.62
2023-03-06T11:33:34.607Z,64.55
2023-03-06T11:34:34.607Z,63.31
2023-03-06T11:35:34.638Z,64.55
2023-03-06T11:36:34.579Z,64.86
2023-03-06T11:37:34.582Z,65.72
2023-03-06T11:38:34.571Z,65.06
2023-03-06T11:39:34.578Z,66.27
2023-03-06T11:40:34.556Z,65.34
2023-03-06T11:41:34.556Z,65.97
2023-03-06T11:42:34.543Z,65.91
2023-03-06T11:43:34.534Z,65.70
2023-03-06T11:44:34.538Z,64.87
2023-03-06T11:45:34.525Z,65.18
2023-03-06T11:46:34.584Z,63.92
2023-03-06T11:47:34.504Z,64.32
2023-03-06T11:48:34.505Z,63.29
2023-03-06T11:49:34.485Z,64.71
2023-03-06T11:50:34.486Z,63.60
2023-03-06T11:51:34.498Z,62.68
2023-03-06T11:52:34.479Z,63.19
2023-03-06T11:53:34.473Z,63.60
2023-03-06T11:54:34.463Z,63.29
2023-03-06T11:55:34.454Z,64.64
2023-03-06T11:56:34.490Z,63.71
2023-03-06T11:57:34.460Z,63.74
2023-03-06T11:58:34.433Z,63.22
2023-03-06T11:59:34.426Z,62.94
2023-03-06T12:00:34.431Z,62.94
2023-03-06T12:01:34.409Z,63.59
2023-03-06T12:02:34.432Z,64.52
2023-03-06T12:03:34.412Z,64.83
2023-03-06T12:04:34.401Z,64.52
2023-03-06T12:05:34.389Z,65.45
2023-03-06T12:06:34.373Z,65.76
2023-03-06T12:07:34.397Z,64.93
2023-03-06T12:08:34.372Z,65.34
2023-03-06T12:09:34.367Z,64.34
2023-03-06T12:10:34.346Z,66.20
2023-03-06T12:11:34.345Z,65.69
2023-03-06T12:12:34.375Z,65.27
2023-03-06T12:13:34.317Z,66.27
2023-03-06T12:14:34.323Z,65.55
2023-03-06T12:15:34.322Z,64.73
2023-03-06T12:16:34.365Z,64.42
2023-03-06T12:17:34.307Z,65.30
2023-03-06T12:18:34.324Z,65.51
2023-03-06T12:19:34.298Z,65.72
2023-03-06T12:20:34.297Z,65.82
2023-03-06T12:21:34.275Z,65.85
2023-03-06T12:22:34.266Z,66.06
2023-03-06T12:23:34.271Z,67.02
2023-03-06T12:24:34.255Z,67.02
2023-03-06T12:25:34.257Z,67.09
2023-03-06T12:26:34.240Z,67.91
2023-03-06T12:27:34.269Z,66.99
2023-03-06T12:28:34.223Z,66.88
2023-03-06T12:29:34.252Z,66.78
2023-03-06T12:30:34.218Z,67.16
2023-03-06T12:31:34.216Z,67.19
2023-03-06T12:32:34.219Z,68.12
2023-03-06T12:33:34.181Z,68.92
2023-03-06T12:34:34.228Z,67.50
2023-03-06T12:35:34.258Z,66.64
2023-03-06T12:36:34.171Z,66.26
2023-03-06T12:37:34.163Z,66.67
2023-03-06T12:38:34.177Z,66.78
2023-03-06T12:39:34.160Z,68.02
2023-03-06T12:40:34.159Z,68.85
2023-03-06T12:41:34.320Z,68.43
2023-03-06T12:42:34.130Z,68.85
2023-03-06T12:43:34.125Z,69.40
2023-03-06T12:44:34.119Z,70.43
2023-03-06T12:45:34.200Z,69.09
2023-03-06T12:46:34.121Z,71.39
2023-03-06T12:47:34.096Z,71.29
2023-03-06T12:48:34.097Z,72.33
2023-03-06T12:49:34.068Z,72.22
2023-03-06T12:50:34.081Z,71.08
2023-03-06T12:51:34.096Z,71.50
2023-03-06T12:52:34.069Z,71.60
2023-03-06T12:53:34.077Z,71.84